sensor_id;sensor_type;location;lat;lon;timestamp;pressure;altitude;pressure_sealevel;temperature;humidity
43115;BME280;28727;50.068;14.452;2023-04-03T00:02:25;100022.84;;;4.84;64.15
43115;BME280;28727;50.068;14.452;2023-04-03T00:04:57;100021.53;;;4.78;63.99
43115;BME280;28727;50.068;14.452;2023-04-03T00:07:29;100018.06;;;4.78;64.29
43115;BME280;28727;50.068;14.452;2023-04-03T00:10:00;100023.09;;;4.81;64.33
43115;BME280;28727;50.068;14.452;2023-04-03T00:12:33;100026.75;;;4.78;64.29
43115;BME280;28727;50.068;14.452;2023-04-03T00:15:05;100032.72;;;4.80;63.84
43115;BME280;28727;50.068;14.452;2023-04-03T00:17:38;100028.91;;;4.73;64.02
43115;BME280;28727;50.068;14.452;2023-04-03T00:20:11;100026.44;;;4.83;63.96
43115;BME280;28727;50.068;14.452;2023-04-03T00:22:42;100024.13;;;4.67;63.92
43115;BME280;28727;50.068;14.452;2023-04-03T00:25:14;100028.66;;;4.65;64.66
43115;BME280;28727;50.068;14.452;2023-04-03T00:27:46;100021.59;;;4.66;64.64
43115;BME280;28727;50.068;14.452;2023-04-03T00:30:22;100027.91;;;4.63;64.59
43115;BME280;28727;50.068;14.452;2023-04-03T00:32:54;100031.13;;;4.67;64.26
43115;BME280;28727;50.068;14.452;2023-04-03T00:35:26;100031.84;;;4.69;64.39
43115;BME280;28727;50.068;14.452;2023-04-03T00:37:59;100027.56;;;4.68;64.46
43115;BME280;28727;50.068;14.452;2023-04-03T00:40:41;100033.06;;;4.65;64.63
43115;BME280;28727;50.068;14.452;2023-04-03T00:43:24;100033.06;;;4.65;64.25
43115;BME280;28727;50.068;14.452;2023-04-03T00:45:59;100031.38;;;4.64;64.43
43115;BME280;28727;50.068;14.452;2023-04-03T00:51:09;100047.53;;;4.58;64.42
43115;BME280;28727;50.068;14.452;2023-04-03T00:53:55;100039.56;;;4.59;63.91
43115;BME280;28727;50.068;14.452;2023-04-03T00:56:30;100037.66;;;4.61;64.26
43115;BME280;28727;50.068;14.452;2023-04-03T00:59:09;100041.22;;;4.60;63.92
43115;BME280;28727;50.068;14.452;2023-04-03T01:01:42;100048.47;;;4.57;63.56
43115;BME280;28727;50.068;14.452;2023-04-03T01:04:35;100048.47;;;4.57;63.29
43115;BME280;28727;50.068;14.452;2023-04-03T01:09:47;100053.09;;;4.53;62.94
43115;BME280;28727;50.068;14.452;2023-04-03T01:12:26;100055.47;;;4.56;62.99
43115;BME280;28727;50.068;14.452;2023-04-03T01:23:22;100057.94;;;4.46;61.51
43115;BME280;28727;50.068;14.452;2023-04-03T01:25:58;100065.63;;;4.37;61.31
43115;BME280;28727;50.068;14.452;2023-04-03T01:28:33;100056.22;;;4.34;60.87
43115;BME280;28727;50.068;14.452;2023-04-03T01:33:38;100062.59;;;4.30;60.76
43115;BME280;28727;50.068;14.452;2023-04-03T01:36:23;100069.75;;;4.28;60.23
43115;BME280;28727;50.068;14.452;2023-04-03T01:38:57;100069.66;;;4.30;60.11
43115;BME280;28727;50.068;14.452;2023-04-03T01:41:31;100079.56;;;4.25;59.02
43115;BME280;28727;50.068;14.452;2023-04-03T01:44:12;100083.41;;;4.08;58.75
43115;BME280;28727;50.068;14.452;2023-04-03T01:46:44;100089.72;;;4.05;59.19
43115;BME280;28727;50.068;14.452;2023-04-03T01:49:16;100091.09;;;3.98;58.51
43115;BME280;28727;50.068;14.452;2023-04-03T01:51:48;100091.00;;;3.87;58.15
43115;BME280;28727;50.068;14.452;2023-04-03T01:54:20;100102.59;;;3.83;58.08
43115;BME280;28727;50.068;14.452;2023-04-03T01:56:52;100113.72;;;3.74;57.61
43115;BME280;28727;50.068;14.452;2023-04-03T01:59:25;100109.50;;;3.71;57.46
43115;BME280;28727;50.068;14.452;2023-04-03T02:01:57;100110.47;;;3.70;57.57
43115;BME280;28727;50.068;14.452;2023-04-03T02:04:28;100112.69;;;3.64;56.99
43115;BME280;28727;50.068;14.452;2023-04-03T02:07:00;100122.19;;;3.65;56.71
43115;BME280;28727;50.068;14.452;2023-04-03T02:09:32;100119.25;;;3.57;56.35
43115;BME280;28727;50.068;14.452;2023-04-03T02:12:04;100127.28;;;3.54;56.49
43115;BME280;28727;50.068;14.452;2023-04-03T02:14:37;100122.47;;;3.48;56.71
43115;BME280;28727;50.068;14.452;2023-04-03T02:17:08;100125.41;;;3.43;56.45
43115;BME280;28727;50.068;14.452;2023-04-03T02:19:40;100132.63;;;3.40;56.23
43115;BME280;28727;50.068;14.452;2023-04-03T02:22:12;100128.75;;;3.33;56.90
43115;BME280;28727;50.068;14.452;2023-04-03T02:24:44;100145.91;;;3.24;55.63
43115;BME280;28727;50.068;14.452;2023-04-03T02:27:16;100141.91;;;3.18;56.47
43115;BME280;28727;50.068;14.452;2023-04-03T02:29:47;100141.19;;;3.16;56.47
43115;BME280;28727;50.068;14.452;2023-04-03T02:32:19;100138.88;;;3.12;56.42
43115;BME280;28727;50.068;14.452;2023-04-03T02:34:51;100128.53;;;3.10;56.34
43115;BME280;28727;50.068;14.452;2023-04-03T02:37:23;100135.81;;;2.93;56.43
43115;BME280;28727;50.068;14.452;2023-04-03T02:39:57;100130.25;;;2.84;56.68
43115;BME280;28727;50.068;14.452;2023-04-03T02:42:32;100140.16;;;2.79;56.86
43115;BME280;28727;50.068;14.452;2023-04-03T02:45:04;100145.59;;;2.76;56.99
43115;BME280;28727;50.068;14.452;2023-04-03T02:47:36;100154.00;;;2.67;57.36
43115;BME280;28727;50.068;14.452;2023-04-03T02:50:08;100153.47;;;2.62;56.87
43115;BME280;28727;50.068;14.452;2023-04-03T02:52:40;100154.88;;;2.54;57.12
43115;BME280;28727;50.068;14.452;2023-04-03T02:55:14;100151.00;;;2.46;56.79
43115;BME280;28727;50.068;14.452;2023-04-03T02:57:48;100157.00;;;2.34;56.89
43115;BME280;28727;50.068;14.452;2023-04-03T03:00:20;100155.16;;;2.22;57.67
43115;BME280;28727;50.068;14.452;2023-04-03T03:02:52;100164.19;;;2.17;57.75
43115;BME280;28727;50.068;14.452;2023-04-03T03:05:23;100166.34;;;2.10;58.10
43115;BME280;28727;50.068;14.452;2023-04-03T03:07:55;100171.28;;;2.00;58.04
43115;BME280;28727;50.068;14.452;2023-04-03T03:10:27;100163.56;;;1.99;58.81
43115;BME280;28727;50.068;14.452;2023-04-03T03:12:59;100169.72;;;1.98;58.54
43115;BME280;28727;50.068;14.452;2023-04-03T03:15:30;100176.78;;;1.96;58.39
43115;BME280;28727;50.068;14.452;2023-04-03T03:18:02;100170.38;;;1.87;58.25
43115;BME280;28727;50.068;14.452;2023-04-03T03:20:34;100171.38;;;1.85;58.64
43115;BME280;28727;50.068;14.452;2023-04-03T03:23:07;100177.16;;;1.76;58.69
43115;BME280;28727;50.068;14.452;2023-04-03T03:25:41;100174.94;;;1.70;59.01
43115;BME280;28727;50.068;14.452;2023-04-03T03:28:13;100183.00;;;1.65;58.59
43115;BME280;28727;50.068;14.452;2023-04-03T03:30:45;100185.25;;;1.57;58.70
43115;BME280;28727;50.068;14.452;2023-04-03T03:33:18;100183.28;;;1.60;59.11
43115;BME280;28727;50.068;14.452;2023-04-03T03:35:51;100184.47;;;1.55;59.12
43115;BME280;28727;50.068;14.452;2023-04-03T03:38:23;100187.66;;;1.46;58.66
43115;BME280;28727;50.068;14.452;2023-04-03T03:40:55;100190.53;;;1.41;59.31
43115;BME280;28727;50.068;14.452;2023-04-03T03:43:28;100189.00;;;1.37;59.22
43115;BME280;28727;50.068;14.452;2023-04-03T03:46:00;100193.72;;;1.31;59.57
43115;BME280;28727;50.068;14.452;2023-04-03T03:48:32;100195.19;;;1.20;59.50
43115;BME280;28727;50.068;14.452;2023-04-03T03:51:04;100196.19;;;1.18;59.53
43115;BME280;28727;50.068;14.452;2023-04-03T03:53:39;100198.81;;;1.18;59.61
43115;BME280;28727;50.068;14.452;2023-04-03T03:56:16;100196.97;;;1.20;60.02
43115;BME280;28727;50.068;14.452;2023-04-03T03:58:49;100190.84;;;1.21;60.09
43115;BME280;28727;50.068;14.452;2023-04-03T04:01:22;100196.03;;;1.21;59.71
43115;BME280;28727;50.068;14.452;2023-04-03T04:03:55;100203.28;;;1.16;59.79
43115;BME280;28727;50.068;14.452;2023-04-03T04:06:31;100201.03;;;1.10;60.23
43115;BME280;28727;50.068;14.452;2023-04-03T04:09:08;100196.09;;;1.05;60.53
43115;BME280;28727;50.068;14.452;2023-04-03T04:11:43;100209.25;;;1.02;60.26
43115;BME280;28727;50.068;14.452;2023-04-03T04:14:16;100212.63;;;1.04;60.32
43115;BME280;28727;50.068;14.452;2023-04-03T04:16:48;100211.88;;;1.02;60.46
43115;BME280;28727;50.068;14.452;2023-04-03T04:19:25;100219.59;;;1.04;60.54
43115;BME280;28727;50.068;14.452;2023-04-03T04:21:57;100219.59;;;1.04;60.63
43115;BME280;28727;50.068;14.452;2023-04-03T04:24:29;100219.09;;;0.97;60.76
43115;BME280;28727;50.068;14.452;2023-04-03T04:27:01;100223.53;;;0.95;60.98
43115;BME280;28727;50.068;14.452;2023-04-03T04:29:35;100219.44;;;0.91;61.32
43115;BME280;28727;50.068;14.452;2023-04-03T04:32:13;100223.81;;;0.91;61.11
43115;BME280;28727;50.068;14.452;2023-04-03T04:34:45;100230.75;;;0.90;60.96
43115;BME280;28727;50.068;14.452;2023-04-03T04:37:17;100229.91;;;0.90;61.19
43115;BME280;28727;50.068;14.452;2023-04-03T04:39:51;100232.44;;;0.91;60.99
43115;BME280;28727;50.068;14.452;2023-04-03T04:42:23;100237.31;;;0.97;62.18
43115;BME280;28727;50.068;14.452;2023-04-03T04:44:55;100236.47;;;0.97;61.41
43115;BME280;28727;50.068;14.452;2023-04-03T04:47:28;100248.81;;;0.93;61.31
43115;BME280;28727;50.068;14.452;2023-04-03T04:50:00;100243.41;;;0.96;61.13
43115;BME280;28727;50.068;14.452;2023-04-03T04:52:33;100241.94;;;0.92;60.60
43115;BME280;28727;50.068;14.452;2023-04-03T04:55:05;100243.19;;;0.85;61.10
43115;BME280;28727;50.068;14.452;2023-04-03T04:57:38;100247.72;;;0.81;60.93
43115;BME280;28727;50.068;14.452;2023-04-03T05:00:12;100247.81;;;0.80;61.15
43115;BME280;28727;50.068;14.452;2023-04-03T05:02:44;100249.31;;;0.84;61.18
43115;BME280;28727;50.068;14.452;2023-04-03T05:05:16;100253.50;;;0.87;60.92
43115;BME280;28727;50.068;14.452;2023-04-03T05:07:51;100252.59;;;0.88;61.17
43115;BME280;28727;50.068;14.452;2023-04-03T05:10:23;100248.47;;;0.99;60.90
43115;BME280;28727;50.068;14.452;2023-04-03T05:12:54;100252.72;;;2.04;59.22
43115;BME280;28727;50.068;14.452;2023-04-03T05:15:26;100254.00;;;3.34;57.25
43115;BME280;28727;50.068;14.452;2023-04-03T05:17:59;100242.53;;;4.25;55.48
43115;BME280;28727;50.068;14.452;2023-04-03T05:20:32;100253.91;;;4.37;54.85
43115;BME280;28727;50.068;14.452;2023-04-03T05:23:04;100253.00;;;4.12;54.38
43115;BME280;28727;50.068;14.452;2023-04-03T05:25:39;100251.97;;;3.64;55.05
43115;BME280;28727;50.068;14.452;2023-04-03T05:28:12;100253.38;;;3.43;54.85
43115;BME280;28727;50.068;14.452;2023-04-03T05:30:44;100264.69;;;3.56;54.96
43115;BME280;28727;50.068;14.452;2023-04-03T05:33:16;100253.31;;;3.57;54.81
43115;BME280;28727;50.068;14.452;2023-04-03T05:35:53;100259.59;;;3.67;54.23
43115;BME280;28727;50.068;14.452;2023-04-03T05:38:31;100265.75;;;3.66;54.18
43115;BME280;28727;50.068;14.452;2023-04-03T05:41:04;100265.03;;;3.64;53.80
43115;BME280;28727;50.068;14.452;2023-04-03T05:43:37;100269.94;;;3.69;54.57
43115;BME280;28727;50.068;14.452;2023-04-03T05:46:16;100271.09;;;4.03;53.50
43115;BME280;28727;50.068;14.452;2023-04-03T05:48:51;100272.78;;;4.17;53.08
43115;BME280;28727;50.068;14.452;2023-04-03T05:51:28;100277.59;;;4.10;52.70
43115;BME280;28727;50.068;14.452;2023-04-03T05:54:11;100289.59;;;4.38;51.92
43115;BME280;28727;50.068;14.452;2023-04-03T05:56:45;100291.50;;;4.85;51.54
43115;BME280;28727;50.068;14.452;2023-04-03T05:59:18;100292.13;;;4.88;51.04
43115;BME280;28727;50.068;14.452;2023-04-03T06:01:52;100284.78;;;4.93;51.22
43115;BME280;28727;50.068;14.452;2023-04-03T06:04:24;100293.63;;;4.67;50.75
43115;BME280;28727;50.068;14.452;2023-04-03T06:06:58;100297.53;;;4.49;50.64
43115;BME280;28727;50.068;14.452;2023-04-03T06:09:33;100297.19;;;4.66;51.83
43115;BME280;28727;50.068;14.452;2023-04-03T06:12:05;100301.72;;;5.01;51.00
43115;BME280;28727;50.068;14.452;2023-04-03T06:14:37;100306.72;;;5.04;50.70
43115;BME280;28727;50.068;14.452;2023-04-03T06:17:09;100300.53;;;5.52;49.86
43115;BME280;28727;50.068;14.452;2023-04-03T06:19:41;100301.31;;;5.65;49.49
43115;BME280;28727;50.068;14.452;2023-04-03T06:22:13;100304.94;;;5.52;49.56
43115;BME280;28727;50.068;14.452;2023-04-03T06:24:45;100311.06;;;5.63;48.79
43115;BME280;28727;50.068;14.452;2023-04-03T06:27:18;100301.06;;;5.92;49.25
43115;BME280;28727;50.068;14.452;2023-04-03T06:29:49;100314.28;;;5.91;48.07
43115;BME280;28727;50.068;14.452;2023-04-03T06:32:21;100312.53;;;5.78;47.80
43115;BME280;28727;50.068;14.452;2023-04-03T06:34:54;100325.00;;;5.64;47.90
43115;BME280;28727;50.068;14.452;2023-04-03T06:37:27;100318.13;;;5.74;47.85
43115;BME280;28727;50.068;14.452;2023-04-03T06:40:00;100324.00;;;6.24;46.94
43115;BME280;28727;50.068;14.452;2023-04-03T06:42:32;100325.69;;;6.58;46.16
43115;BME280;28727;50.068;14.452;2023-04-03T06:45:15;100313.75;;;6.54;46.44
43115;BME280;28727;50.068;14.452;2023-04-03T06:47:47;100321.50;;;6.78;45.97
43115;BME280;28727;50.068;14.452;2023-04-03T06:50:19;100328.13;;;7.15;45.11
43115;BME280;28727;50.068;14.452;2023-04-03T06:52:51;100331.38;;;7.08;44.55
43115;BME280;28727;50.068;14.452;2023-04-03T06:55:23;100329.94;;;7.58;43.69
43115;BME280;28727;50.068;14.452;2023-04-03T06:57:54;100326.69;;;8.07;43.14
43115;BME280;28727;50.068;14.452;2023-04-03T07:00:26;100330.97;;;8.49;42.60
43115;BME280;28727;50.068;14.452;2023-04-03T07:02:59;100330.97;;;8.49;42.45
43115;BME280;28727;50.068;14.452;2023-04-03T07:05:34;100325.53;;;8.72;42.24
43115;BME280;28727;50.068;14.452;2023-04-03T07:08:07;100330.59;;;8.54;41.17
43115;BME280;28727;50.068;14.452;2023-04-03T07:10:39;100329.53;;;8.36;42.08
43115;BME280;28727;50.068;14.452;2023-04-03T07:13:11;100336.38;;;8.48;41.59
43115;BME280;28727;50.068;14.452;2023-04-03T07:15:43;100342.41;;;8.59;42.08
43115;BME280;28727;50.068;14.452;2023-04-03T07:18:16;100336.75;;;8.74;41.70
43115;BME280;28727;50.068;14.452;2023-04-03T07:20:48;100333.13;;;9.05;40.07
43115;BME280;28727;50.068;14.452;2023-04-03T07:23:20;100334.31;;;8.82;40.41
43115;BME280;28727;50.068;14.452;2023-04-03T07:25:52;100336.97;;;8.61;40.74
43115;BME280;28727;50.068;14.452;2023-04-03T07:28:24;100341.41;;;8.30;41.05
43115;BME280;28727;50.068;14.452;2023-04-03T07:31:03;100338.56;;;8.22;40.73
43115;BME280;28727;50.068;14.452;2023-04-03T07:33:35;100340.19;;;8.34;41.17
43115;BME280;28727;50.068;14.452;2023-04-03T07:36:08;100339.50;;;8.62;40.41
43115;BME280;28727;50.068;14.452;2023-04-03T07:38:39;100342.03;;;8.74;40.02
43115;BME280;28727;50.068;14.452;2023-04-03T07:41:14;100340.00;;;8.87;39.53
43115;BME280;28727;50.068;14.452;2023-04-03T07:43:46;100337.03;;;9.11;39.09
43115;BME280;28727;50.068;14.452;2023-04-03T07:46:18;100341.69;;;8.97;39.24
43115;BME280;28727;50.068;14.452;2023-04-03T07:48:50;100340.63;;;9.10;39.70
43115;BME280;28727;50.068;14.452;2023-04-03T07:51:22;100355.19;;;9.14;39.44
43115;BME280;28727;50.068;14.452;2023-04-03T07:53:56;100350.13;;;9.41;38.73
43115;BME280;28727;50.068;14.452;2023-04-03T07:56:28;100344.94;;;9.20;38.48
43115;BME280;28727;50.068;14.452;2023-04-03T07:59:00;100342.41;;;8.59;39.38
43115;BME280;28727;50.068;14.452;2023-04-03T08:01:32;100347.50;;;8.31;39.88
43115;BME280;28727;50.068;14.452;2023-04-03T08:04:05;100361.25;;;7.81;40.81
43115;BME280;28727;50.068;14.452;2023-04-03T08:06:38;100348.03;;;8.13;40.92
43115;BME280;28727;50.068;14.452;2023-04-03T08:09:17;100346.47;;;8.73;39.74
43115;BME280;28727;50.068;14.452;2023-04-03T08:11:50;100343.00;;;8.73;39.60
43115;BME280;28727;50.068;14.452;2023-04-03T08:14:25;100348.28;;;7.90;40.68
43115;BME280;28727;50.068;14.452;2023-04-03T08:16:57;100360.22;;;7.41;41.13
43115;BME280;28727;50.068;14.452;2023-04-03T08:19:31;100359.91;;;7.01;41.66
43115;BME280;28727;50.068;14.452;2023-04-03T08:22:02;100360.06;;;6.77;42.42
43115;BME280;28727;50.068;14.452;2023-04-03T08:24:35;100349.31;;;6.47;43.36
43115;BME280;28727;50.068;14.452;2023-04-03T08:27:09;100355.63;;;7.00;52.75
43115;BME280;28727;50.068;14.452;2023-04-03T08:29:41;100356.75;;;7.40;45.05
43115;BME280;28727;50.068;14.452;2023-04-03T08:32:13;100356.44;;;7.55;42.74
43115;BME280;28727;50.068;14.452;2023-04-03T08:34:45;100364.69;;;7.07;42.00
43115;BME280;28727;50.068;14.452;2023-04-03T08:37:17;100361.81;;;7.21;42.21
43115;BME280;28727;50.068;14.452;2023-04-03T08:39:49;100360.09;;;7.31;42.51
43115;BME280;28727;50.068;14.452;2023-04-03T08:42:45;100348.84;;;7.72;41.22
43115;BME280;28727;50.068;14.452;2023-04-03T08:45:45;100367.94;;;7.43;41.13
43115;BME280;28727;50.068;14.452;2023-04-03T08:48:26;100357.81;;;7.38;41.91
43115;BME280;28727;50.068;14.452;2023-04-03T08:51:03;100355.56;;;7.33;41.17
43115;BME280;28727;50.068;14.452;2023-04-03T08:53:50;100354.31;;;7.06;41.55
43115;BME280;28727;50.068;14.452;2023-04-03T08:56:29;100353.50;;;6.83;41.71
43115;BME280;28727;50.068;14.452;2023-04-03T08:59:11;100349.69;;;6.65;42.41
43115;BME280;28727;50.068;14.452;2023-04-03T09:01:44;100363.75;;;6.75;42.44
43115;BME280;28727;50.068;14.452;2023-04-03T09:04:17;100357.19;;;6.47;42.06
43115;BME280;28727;50.068;14.452;2023-04-03T09:06:57;100359.00;;;6.00;41.88
43115;BME280;28727;50.068;14.452;2023-04-03T09:09:40;100363.03;;;5.69;43.01
43115;BME280;28727;50.068;14.452;2023-04-03T09:12:29;100357.47;;;5.85;41.86
43115;BME280;28727;50.068;14.452;2023-04-03T09:15:17;100345.69;;;5.56;43.01
43115;BME280;28727;50.068;14.452;2023-04-03T09:18:03;100360.69;;;5.54;42.82
43115;BME280;28727;50.068;14.452;2023-04-03T09:26:14;100377.97;;;5.32;43.62
43115;BME280;28727;50.068;14.452;2023-04-03T09:28:46;100373.31;;;5.12;43.05
43115;BME280;28727;50.068;14.452;2023-04-03T09:31:24;100378.75;;;5.09;43.55
43115;BME280;28727;50.068;14.452;2023-04-03T09:33:57;100376.09;;;5.58;42.70
43115;BME280;28727;50.068;14.452;2023-04-03T09:36:46;100383.38;;;5.42;43.36
43115;BME280;28727;50.068;14.452;2023-04-03T09:39:21;100374.13;;;5.97;42.91
43115;BME280;28727;50.068;14.452;2023-04-03T09:42:03;100371.44;;;6.21;42.88
43115;BME280;28727;50.068;14.452;2023-04-03T09:44:37;100382.91;;;6.31;41.82
43115;BME280;28727;50.068;14.452;2023-04-03T09:47:36;100375.41;;;6.37;40.18
43115;BME280;28727;50.068;14.452;2023-04-03T09:52:49;100366.69;;;6.37;41.66
43115;BME280;28727;50.068;14.452;2023-04-03T09:55:26;100366.84;;;6.57;40.99
43115;BME280;28727;50.068;14.452;2023-04-03T09:58:02;100363.59;;;6.32;41.15
43115;BME280;28727;50.068;14.452;2023-04-03T10:00:38;100373.16;;;6.44;41.03
43115;BME280;28727;50.068;14.452;2023-04-03T10:03:32;100370.41;;;6.34;40.35
43115;BME280;28727;50.068;14.452;2023-04-03T10:06:22;100379.41;;;6.65;39.64
43115;BME280;28727;50.068;14.452;2023-04-03T10:09:01;100368.81;;;7.32;40.11
43115;BME280;28727;50.068;14.452;2023-04-03T10:11:35;100369.38;;;8.10;37.76
43115;BME280;28727;50.068;14.452;2023-04-03T10:14:16;100369.28;;;7.80;38.33
43115;BME280;28727;50.068;14.452;2023-04-03T10:16:56;100382.09;;;7.19;39.71
43115;BME280;28727;50.068;14.452;2023-04-03T10:19:42;100375.94;;;6.98;39.80
43115;BME280;28727;50.068;14.452;2023-04-03T10:22:37;100372.22;;;6.56;40.44
43115;BME280;28727;50.068;14.452;2023-04-03T10:26:17;100372.94;;;6.58;41.24
43115;BME280;28727;50.068;14.452;2023-04-03T10:28:33;100366.75;;;6.81;41.35
43115;BME280;28727;50.068;14.452;2023-04-03T10:31:18;100359.84;;;7.46;41.09
43115;BME280;28727;50.068;14.452;2023-04-03T10:36:35;100358.84;;;8.10;38.49
43115;BME280;28727;50.068;14.452;2023-04-03T10:42:11;100355.75;;;8.05;37.97
43115;BME280;28727;50.068;14.452;2023-04-03T10:45:20;100351.25;;;7.96;37.60
43115;BME280;28727;50.068;14.452;2023-04-03T10:54:00;100347.41;;;7.48;38.62
43115;BME280;28727;50.068;14.452;2023-04-03T10:56:52;100360.34;;;7.39;38.54
43115;BME280;28727;50.068;14.452;2023-04-03T10:59:50;100356.94;;;7.17;38.52
43115;BME280;28727;50.068;14.452;2023-04-03T11:02:24;100342.38;;;6.79;39.29
43115;BME280;28727;50.068;14.452;2023-04-03T11:05:07;100346.44;;;6.72;40.05
43115;BME280;28727;50.068;14.452;2023-04-03T11:07:48;100351.47;;;6.75;39.80
43115;BME280;28727;50.068;14.452;2023-04-03T11:10:30;100355.88;;;6.97;40.00
43115;BME280;28727;50.068;14.452;2023-04-03T11:13:41;100346.69;;;6.69;39.70
43115;BME280;28727;50.068;14.452;2023-04-03T11:16:05;100345.28;;;6.65;40.25
43115;BME280;28727;50.068;14.452;2023-04-03T11:19:02;100344.06;;;6.91;39.58
43115;BME280;28727;50.068;14.452;2023-04-03T11:21:40;100344.53;;;6.74;40.24
43115;BME280;28727;50.068;14.452;2023-04-03T11:24:27;100348.13;;;6.62;39.53
43115;BME280;28727;50.068;14.452;2023-04-03T11:27:03;100346.56;;;6.48;39.15
43115;BME280;28727;50.068;14.452;2023-04-03T11:29:39;100343.34;;;6.45;39.22
43115;BME280;28727;50.068;14.452;2023-04-03T11:32:48;100343.13;;;6.48;39.82
43115;BME280;28727;50.068;14.452;2023-04-03T11:35:10;100343.91;;;6.37;39.96
43115;BME280;28727;50.068;14.452;2023-04-03T11:37:49;100335.81;;;6.29;40.16
43115;BME280;28727;50.068;14.452;2023-04-03T11:40:26;100333.66;;;6.12;40.63
43115;BME280;28727;50.068;14.452;2023-04-03T11:45:56;100314.31;;;6.13;40.66
43115;BME280;28727;50.068;14.452;2023-04-03T11:53:44;100318.78;;;6.46;39.34
43115;BME280;28727;50.068;14.452;2023-04-03T12:01:48;100314.84;;;6.40;39.26
43115;BME280;28727;50.068;14.452;2023-04-03T12:04:23;100314.09;;;6.38;38.68
43115;BME280;28727;50.068;14.452;2023-04-03T12:07:18;100308.03;;;6.38;37.85
43115;BME280;28727;50.068;14.452;2023-04-03T12:12:34;100308.75;;;6.29;37.80
43115;BME280;28727;50.068;14.452;2023-04-03T12:15:26;100308.72;;;6.73;38.99
43115;BME280;28727;50.068;14.452;2023-04-03T12:21:04;100304.97;;;7.09;37.24
43115;BME280;28727;50.068;14.452;2023-04-03T12:46:14;100299.44;;;6.58;35.85
43115;BME280;28727;50.068;14.452;2023-04-03T12:54:15;100284.53;;;6.58;37.89
43115;BME280;28727;50.068;14.452;2023-04-03T12:56:48;100285.13;;;6.51;37.90
43115;BME280;28727;50.068;14.452;2023-04-03T12:59:24;100286.81;;;6.41;38.48
43115;BME280;28727;50.068;14.452;2023-04-03T13:01:59;100280.09;;;6.37;38.78
43115;BME280;28727;50.068;14.452;2023-04-03T13:04:32;100277.63;;;6.35;38.87
43115;BME280;28727;50.068;14.452;2023-04-03T13:07:04;100298.97;;;6.53;38.30
43115;BME280;28727;50.068;14.452;2023-04-03T13:09:36;100289.06;;;6.56;37.95
43115;BME280;28727;50.068;14.452;2023-04-03T13:12:13;100291.78;;;6.66;37.81
43115;BME280;28727;50.068;14.452;2023-04-03T13:14:58;100286.22;;;6.60;37.65
43115;BME280;28727;50.068;14.452;2023-04-03T13:17:31;100288.47;;;6.53;37.81
43115;BME280;28727;50.068;14.452;2023-04-03T13:20:26;100290.84;;;6.45;38.33
43115;BME280;28727;50.068;14.452;2023-04-03T13:23:02;100288.34;;;6.32;39.24
43115;BME280;28727;50.068;14.452;2023-04-03T13:25:41;100286.34;;;6.36;37.96
43115;BME280;28727;50.068;14.452;2023-04-03T13:28:21;100287.13;;;6.25;38.05
43115;BME280;28727;50.068;14.452;2023-04-03T13:31:22;100288.34;;;6.21;38.54
43115;BME280;28727;50.068;14.452;2023-04-03T13:34:05;100290.59;;;6.37;38.36
43115;BME280;28727;50.068;14.452;2023-04-03T13:37:03;100283.09;;;6.32;36.64
43115;BME280;28727;50.068;14.452;2023-04-03T13:39:37;100279.63;;;6.09;38.07
43115;BME280;28727;50.068;14.452;2023-04-03T13:42:28;100275.47;;;6.18;37.72
43115;BME280;28727;50.068;14.452;2023-04-03T13:45:18;100278.22;;;6.16;37.18
43115;BME280;28727;50.068;14.452;2023-04-03T13:47:54;100287.38;;;6.22;37.50
43115;BME280;28727;50.068;14.452;2023-04-03T13:50:26;100282.63;;;6.16;37.93
43115;BME280;28727;50.068;14.452;2023-04-03T13:53:12;100289.66;;;6.15;37.60
43115;BME280;28727;50.068;14.452;2023-04-03T13:55:58;100278.41;;;6.02;36.95
43115;BME280;28727;50.068;14.452;2023-04-03T13:58:31;100281.28;;;5.88;37.18
43115;BME280;28727;50.068;14.452;2023-04-03T14:01:09;100276.66;;;5.79;38.50
43115;BME280;28727;50.068;14.452;2023-04-03T14:03:50;100267.19;;;5.89;38.11
43115;BME280;28727;50.068;14.452;2023-04-03T14:06:23;100265.91;;;5.95;38.25
43115;BME280;28727;50.068;14.452;2023-04-03T14:08:55;100277.47;;;6.03;38.02
43115;BME280;28727;50.068;14.452;2023-04-03T14:11:29;100272.69;;;6.08;36.98
43115;BME280;28727;50.068;14.452;2023-04-03T14:14:09;100275.22;;;5.99;37.34
43115;BME280;28727;50.068;14.452;2023-04-03T14:16:46;100276.09;;;5.87;37.60
43115;BME280;28727;50.068;14.452;2023-04-03T14:22:01;100268.28;;;5.98;37.24
43115;BME280;28727;50.068;14.452;2023-04-03T14:24:35;100270.06;;;5.97;37.73
43115;BME280;28727;50.068;14.452;2023-04-03T14:27:26;100272.47;;;6.00;37.72
43115;BME280;28727;50.068;14.452;2023-04-03T14:29:58;100268.03;;;5.90;37.91
43115;BME280;28727;50.068;14.452;2023-04-03T14:32:30;100272.94;;;5.94;38.10
43115;BME280;28727;50.068;14.452;2023-04-03T14:35:02;100271.81;;;5.86;37.53
43115;BME280;28727;50.068;14.452;2023-04-03T14:37:34;100273.09;;;5.80;36.93
43115;BME280;28727;50.068;14.452;2023-04-03T14:40:08;100276.06;;;5.64;37.34
43115;BME280;28727;50.068;14.452;2023-04-03T14:42:40;100266.13;;;5.57;36.98
43115;BME280;28727;50.068;14.452;2023-04-03T14:45:13;100274.47;;;5.62;36.88
43115;BME280;28727;50.068;14.452;2023-04-03T14:47:53;100269.72;;;5.67;36.41
43115;BME280;28727;50.068;14.452;2023-04-03T14:50:27;100262.72;;;5.78;36.17
43115;BME280;28727;50.068;14.452;2023-04-03T14:53:02;100277.84;;;5.64;37.08
43115;BME280;28727;50.068;14.452;2023-04-03T14:55:34;100271.47;;;5.55;37.40
43115;BME280;28727;50.068;14.452;2023-04-03T14:58:11;100268.66;;;5.58;37.61
43115;BME280;28727;50.068;14.452;2023-04-03T15:00:43;100271.00;;;5.50;37.67
43115;BME280;28727;50.068;14.452;2023-04-03T15:03:18;100273.63;;;5.61;37.90